• Join FlightAware (Why Join?)
  • Login
  • US Flag 
Trick or treat! (Boo!!) 
05:40PM EDT


 

Airport Tracker/Info


-or-


 

Live Flight TrackerFlight Track Log ✈ TAM3746 ✈ 25-May-2013 ✈ SBGR / GRU - SBEG / MAO

Flight Track Log - Related Links

Times and Time Zones

All times are in EDT time to prevent confusion due to time zone crossing. See the TAM3746 flight status page for this flight to view local times or setup timezone preferences in your user account.

Time Position Orientation Groundspeed Altitude Reporting Facility
EDT Latitude Longitude Course Direction KTS MPH feet Rate Location/Type
10:40PM -21.0840 -48.2110 325° Northwest  Level Estimated
10:41PM -20.9967 -48.2744 326° Northwest  Level Estimated
10:42PM -20.9094 -48.3378 326° Northwest  Level Estimated
10:43PM -20.8220 -48.4010 326° Northwest  Level Estimated
10:44PM -20.7346 -48.4642 326° Northwest  Level Estimated
10:45PM -20.6472 -48.5273 326° Northwest  Level Estimated
10:46PM -20.5598 -48.5904 326° Northwest  Level Estimated
10:47PM -20.4723 -48.6534 326° Northwest  Level Estimated
10:48PM -20.3849 -48.7163 326° Northwest  Level Estimated
10:49PM -20.2974 -48.7791 326° Northwest  Level Estimated
10:50PM -20.2098 -48.8418 326° Northwest  Level Estimated
10:51PM -20.1223 -48.9045 326° Northwest  Level Estimated
10:52PM -20.0347 -48.9671 326° Northwest  Level Estimated
10:53PM -19.9472 -49.0297 326° Northwest  Level Estimated
10:54PM -19.8596 -49.0921 326° Northwest  Level Estimated
10:55PM -19.7719 -49.1545 326° Northwest  Level Estimated
10:56PM -19.6843 -49.2169 326° Northwest  Level Estimated
10:57PM -19.5966 -49.2791 326° Northwest  Level Estimated
10:58PM -19.5089 -49.3414 326° Northwest  Level Estimated
10:59PM -19.4212 -49.4035 326° Northwest  Level Estimated
11:00PM -19.3335 -49.4655 326° Northwest  Level Estimated
11:01PM -19.2457 -49.5275 326° Northwest  Level Estimated
11:02PM -19.1579 -49.5895 326° Northwest  Level Estimated
11:03PM -19.0701 -49.6513 326° Northwest  Level Estimated
11:04PM -18.9823 -49.7132 326° Northwest  Level Estimated
11:05PM -18.8945 -49.7749 326° Northwest  Level Estimated
11:06PM -18.8066 -49.8366 326° Northwest  Level Estimated
11:07PM -18.7187 -49.8982 326° Northwest  Level Estimated
11:08PM -18.6308 -49.9597 326° Northwest  Level Estimated
11:09PM -18.5429 -50.0212 326° Northwest  Level Estimated
11:10PM -18.4550 -50.0826 326° Northwest  Level Estimated
11:11PM -18.3670 -50.1440 326° Northwest  Level Estimated
11:12PM -18.2790 -50.2052 327° Northwest  Level Estimated
11:13PM -18.1910 -50.2665 327° Northwest  Level Estimated
11:14PM -18.1030 -50.3276 327° Northwest  Level Estimated
11:15PM -18.0150 -50.3888 327° Northwest  Level Estimated
11:16PM -17.9269 -50.4498 327° Northwest  Level Estimated
11:17PM -17.8388 -50.5108 327° Northwest  Level Estimated
11:18PM -17.7507 -50.5717 327° Northwest  Level Estimated
11:19PM -17.6626 -50.6326 327° Northwest  Level Estimated
11:20PM -17.5745 -50.6934 327° Northwest  Level Estimated
11:21PM -17.4863 -50.7541 327° Northwest  Level Estimated
11:22PM -17.3982 -50.8148 327° Northwest  Level Estimated
11:23PM -17.3100 -50.8754 327° Northwest  Level Estimated
11:24PM -17.2218 -50.9360 327° Northwest  Level Estimated
11:25PM -17.1336 -50.9965 327° Northwest  Level Estimated
11:26PM -17.0453 -51.0570 327° Northwest  Level Estimated
11:27PM -16.9571 -51.1174 327° Northwest  Level Estimated
11:28PM -16.8688 -51.1777 327° Northwest  Level Estimated
11:29PM -16.7805 -51.2380 327° Northwest  Level Estimated
11:30PM -16.6922 -51.2982 327° Northwest  Level Estimated
11:31PM -16.6038 -51.3584 327° Northwest  Level Estimated
11:32PM -16.5155 -51.4185 327° Northwest  Level Estimated
11:33PM -16.4271 -51.4786 327° Northwest  Level Estimated
11:34PM -16.3388 -51.5386 327° Northwest  Level Estimated
11:35PM -16.2504 -51.5985 327° Northwest  Level Estimated
11:36PM -16.1619 -51.6584 327° Northwest  Level Estimated
11:37PM -16.0735 -51.7183 327° Northwest  Level Estimated
11:38PM -15.9851 -51.7781 327° Northwest  Level Estimated
11:39PM -15.8966 -51.8378 327° Northwest  Level Estimated
11:40PM -15.8081 -51.8975 327° Northwest  Level Estimated
11:41PM -15.7196 -51.9571 327° Northwest  Level Estimated
11:42PM -15.6311 -52.0167 327° Northwest  Level Estimated
11:43PM -15.5426 -52.0762 327° Northwest  Level Estimated
11:44PM -15.4540 -52.1357 327° Northwest  Level Estimated
11:45PM -15.3655 -52.1952 327° Northwest  Level Estimated
11:46PM -15.2769 -52.2545 327° Northwest  Level Estimated
11:47PM -15.1883 -52.3139 327° Northwest  Level Estimated
11:48PM -15.0997 -52.3731 327° Northwest  Level Estimated
11:49PM -15.0111 -52.4324 327° Northwest  Level Estimated
11:50PM -14.9224 -52.4916 327° Northwest  Level Estimated
11:51PM -14.8338 -52.5507 327° Northwest  Level Estimated
11:52PM -14.7451 -52.6098 327° Northwest  Level Estimated
11:53PM -14.6564 -52.6688 327° Northwest  Level Estimated
11:54PM -14.5677 -52.7278 327° Northwest  Level Estimated
11:55PM -14.4790 -52.7867 327° Northwest  Level Estimated
11:56PM -14.3903 -52.8456 327° Northwest  Level Estimated
11:57PM -14.3015 -52.9045 327° Northwest  Level Estimated
11:58PM -14.2128 -52.9633 327° Northwest  Level Estimated
11:59PM -14.1240 -53.0220 327° Northwest  Level Estimated
12:00AM -14.0352 -53.0807 327° Northwest  Level Estimated
12:01AM -13.9464 -53.1394 327° Northwest  Level Estimated
12:02AM -13.8576 -53.1980 327° Northwest  Level Estimated
12:03AM -13.7688 -53.2566 327° Northwest  Level Estimated
12:04AM -13.6799 -53.3151 327° Northwest  Level Estimated
12:05AM -13.5911 -53.3736 327° Northwest  Level Estimated
12:06AM -13.5022 -53.4320 327° Northwest  Level Estimated
12:07AM -13.4133 -53.4904 327° Northwest  Level Estimated
12:08AM -13.3244 -53.5488 327° Northwest  Level Estimated
12:09AM -13.2355 -53.6071 327° Northwest  Level Estimated
12:10AM -13.1466 -53.6654 327° Northwest  Level Estimated
12:11AM -13.0577 -53.7236 327° Northwest  Level Estimated
12:12AM -12.9687 -53.7818 327° Northwest  Level Estimated
12:13AM -12.8798 -53.8399 327° Northwest  Level Estimated
12:14AM -12.7908 -53.8980 328° Northwest  Level Estimated
12:15AM -12.7018 -53.9561 328° Northwest  Level Estimated
12:16AM -12.6128 -54.0141 328° Northwest  Level Estimated
12:17AM -12.5238 -54.0721 328° Northwest  Level Estimated
12:18AM -12.4348 -54.1300 328° Northwest  Level Estimated
12:19AM -12.3457 -54.1879 328° Northwest  Level Estimated
12:20AM -12.2567 -54.2458 328° Northwest  Level Estimated
12:21AM -12.1676 -54.3036 328° Northwest  Level Estimated
12:22AM -12.0786 -54.3614 328° Northwest  Level Estimated
12:23AM -11.9895 -54.4191 328° Northwest  Level Estimated
12:24AM -11.9004 -54.4768 328° Northwest  Level Estimated
12:25AM -11.8112 -54.5345 328° Northwest  Level Estimated
12:26AM -11.7221 -54.5921 328° Northwest  Level Estimated
12:27AM -11.6330 -54.6497 328° Northwest  Level Estimated
12:28AM -11.5439 -54.7073 328° Northwest  Level Estimated
12:29AM -11.4547 -54.7648 328° Northwest  Level Estimated
12:30AM -11.3655 -54.8223 328° Northwest  Level Estimated
12:31AM -11.2764 -54.8797 328° Northwest  Level Estimated
12:32AM -11.1872 -54.9371 328° Northwest  Level Estimated
12:33AM -11.0980 -54.9945 328° Northwest  Level Estimated
12:34AM -11.0088 -55.0519 328° Northwest  Level Estimated
12:35AM -10.9195 -55.1092 328° Northwest  Level Estimated
12:36AM -10.8303 -55.1664 328° Northwest  Level Estimated
12:37AM -10.7411 -55.2237 328° Northwest  Level Estimated
12:38AM -10.6518 -55.2809 328° Northwest  Level Estimated
12:39AM -10.5626 -55.3381 328° Northwest  Level Estimated
12:40AM -10.4733 -55.3952 328° Northwest  Level Estimated
12:41AM -10.3840 -55.4523 328° Northwest  Level Estimated
12:42AM -10.2947 -55.5094 328° Northwest  Level Estimated
12:43AM -10.2054 -55.5664 328° Northwest  Level Estimated
12:44AM -10.1161 -55.6234 328° Northwest  Level Estimated
12:45AM -10.0268 -55.6804 328° Northwest  Level Estimated
12:46AM -9.9375 -55.7373 328° Northwest  Level Estimated
12:47AM -9.8481 -55.7943 328° Northwest  Level Estimated
12:48AM -9.7588 -55.8511 328° Northwest  Level Estimated
12:49AM -9.6694 -55.9080 328° Northwest  Level Estimated
12:50AM -9.5800 -55.9648 328° Northwest  Level Estimated
12:51AM -9.4907 -56.0216 328° Northwest  Level Estimated
12:52AM -9.4013 -56.0784 328° Northwest  Level Estimated
12:53AM -9.3119 -56.1351 328° Northwest  Level Estimated
12:54AM -9.2225 -56.1918 328° Northwest  Level Estimated
12:55AM -9.1330 -56.2485 328° Northwest  Level Estimated
12:56AM -9.0436 -56.3051 328° Northwest  Level Estimated
12:57AM -8.9542 -56.3617 328° Northwest  Level Estimated
12:58AM -8.8647 -56.4183 328° Northwest  Level Estimated
12:59AM -8.7753 -56.4749 328° Northwest  Level Estimated
01:00AM -8.6858 -56.5314 328° Northwest  Level Estimated
01:01AM -8.5964 -56.5879 328° Northwest  Level Estimated
01:02AM -8.5069 -56.6444 328° Northwest  Level Estimated
01:03AM -8.4174 -56.7009 328° Northwest  Level Estimated
01:04AM -8.3279 -56.7573 328° Northwest  Level Estimated
01:05AM -8.2384 -56.8137 328° Northwest  Level Estimated
01:06AM -8.1489 -56.8701 328° Northwest  Level Estimated
01:07AM -8.0594 -56.9264 328° Northwest  Level Estimated
01:08AM -7.9699 -56.9828 328° Northwest  Level Estimated
01:09AM -7.8803 -57.0391 328° Northwest  Level Estimated
01:10AM -7.7908 -57.0953 328° Northwest  Level Estimated
01:11AM -7.7013 -57.1516 328° Northwest  Level Estimated
01:12AM -7.6117 -57.2078 328° Northwest  Level Estimated
01:13AM -7.5221 -57.2640 328° Northwest  Level Estimated
01:14AM -7.4326 -57.3202 328° Northwest  Level Estimated
01:15AM -7.3430 -57.3764 328° Northwest  Level Estimated
01:16AM -7.2534 -57.4325 328° Northwest  Level Estimated
01:17AM -7.1638 -57.4887 328° Northwest  Level Estimated
01:18AM -7.0742 -57.5448 328° Northwest  Level Estimated
01:19AM -6.9846 -57.6008 328° Northwest  Level Estimated
01:20AM -6.8950 -57.6569 328° Northwest  Level Estimated
01:21AM -6.8054 -57.7129 328° Northwest  Level Estimated
01:22AM -6.7158 -57.7689 328° Northwest  Level Estimated
01:23AM -6.6262 -57.8249 328° Northwest  Level Estimated
01:24AM -6.5365 -57.8809 328° Northwest  Level Estimated
01:25AM -6.4469 -57.9368 328° Northwest  Level Estimated
01:26AM -6.3573 -57.9927 328° Northwest  Level Estimated
01:27AM -6.2676 -58.0487 328° Northwest  Level Estimated
01:28AM -6.1685 -58.1105 328° Northwest  Level Estimated
01:29AM -6.0693 -58.1722 328° Northwest  Level Estimated
01:30AM -5.9701 -58.2340 328° Northwest  Level Estimated
01:31AM -5.8710 -58.2957 328° Northwest  Level Estimated
01:32AM -5.7718 -58.3574 328° Northwest  Level Estimated
01:33AM -5.6726 -58.4191 328° Northwest  Level Estimated
01:34AM -5.5735 -58.4808 328° Northwest  Level Estimated
01:35AM -5.4743 -58.5424 328° Northwest  Level Estimated
01:36AM -5.3751 -58.6041 328° Northwest  Level Estimated
01:37AM -5.2759 -58.6657 328° Northwest  Level Estimated
01:38AM -5.1767 -58.7273 328° Northwest  Level Estimated
01:39AM -5.0774 -58.7888 328° Northwest  Level Estimated
01:40AM -4.9782 -58.8504 328° Northwest  Level Estimated
01:41AM -4.8790 -58.9119 328° Northwest  Level Estimated
01:42AM -4.7798 -58.9734 328° Northwest  Level Estimated
01:43AM -4.6805 -59.0349 328° Northwest  Level Estimated
01:44AM -4.5813 -59.0964 328° Northwest  Level Estimated
01:45AM -4.4820 -59.1579 328° Northwest  Level Estimated
01:46AM -4.3828 -59.2193 328° Northwest  Level Estimated
01:47AM -4.2835 -59.2807 328° Northwest  Level Estimated
01:48AM -4.1843 -59.3422 328° Northwest  Level Estimated
01:49AM -4.0850 -59.4035 328° Northwest  Level Estimated
01:50AM -3.9857 -59.4649 328° Northwest  Level Estimated
01:51AM -3.8865 -59.5263 328° Northwest  Level Estimated
01:52AM -3.7872 -59.5877 328° Northwest  Level Estimated
01:53AM -3.6879 -59.6490 328° Northwest  Level Estimated
01:54AM -3.5886 -59.7103 328° Northwest  Level Estimated
01:55AM -3.4893 -59.7716 328° Northwest  Level Estimated
01:56AM -3.3900 -59.8329 328° Northwest  Level Estimated
01:57AM -3.2907 -59.8942 328° Northwest  Level Estimated
01:58AM -3.1914 -59.9555 328° Northwest  Level Estimated